sensor_id;sensor_type;location;lat;lon;timestamp;P1;durP1;ratioP1;P2;durP2;ratioP2
27925;SDS011;15267;47.838;12.128;2023-03-05T00:02:11;60.80;;;33.58;;
27925;SDS011;15267;47.838;12.128;2023-03-05T00:04:37;61.40;;;33.53;;
27925;SDS011;15267;47.838;12.128;2023-03-05T00:07:03;62.88;;;33.85;;
27925;SDS011;15267;47.838;12.128;2023-03-05T00:09:30;56.50;;;32.10;;
27925;SDS011;15267;47.838;12.128;2023-03-05T00:11:56;59.53;;;32.72;;
27925;SDS011;15267;47.838;12.128;2023-03-05T00:14:22;69.65;;;35.47;;
27925;SDS011;15267;47.838;12.128;2023-03-05T00:16:48;62.53;;;34.25;;
27925;SDS011;15267;47.838;12.128;2023-03-05T00:19:14;61.88;;;34.53;;
27925;SDS011;15267;47.838;12.128;2023-03-05T00:21:40;58.13;;;33.08;;
27925;SDS011;15267;47.838;12.128;2023-03-05T00:24:09;57.05;;;32.58;;
27925;SDS011;15267;47.838;12.128;2023-03-05T00:26:36;61.22;;;34.38;;
27925;SDS011;15267;47.838;12.128;2023-03-05T00:29:03;63.47;;;34.50;;
27925;SDS011;15267;47.838;12.128;2023-03-05T00:31:29;52.78;;;32.55;;
27925;SDS011;15267;47.838;12.128;2023-03-05T00:33:59;59.65;;;33.40;;
27925;SDS011;15267;47.838;12.128;2023-03-05T00:36:26;58.92;;;34.90;;
27925;SDS011;15267;47.838;12.128;2023-03-05T00:38:52;65.35;;;34.75;;
27925;SDS011;15267;47.838;12.128;2023-03-05T00:41:18;56.00;;;32.05;;
27925;SDS011;15267;47.838;12.128;2023-03-05T00:43:44;60.75;;;34.05;;
27925;SDS011;15267;47.838;12.128;2023-03-05T00:46:10;65.95;;;34.25;;
27925;SDS011;15267;47.838;12.128;2023-03-05T00:48:36;56.80;;;33.33;;
27925;SDS011;15267;47.838;12.128;2023-03-05T00:51:02;64.95;;;34.60;;
27925;SDS011;15267;47.838;12.128;2023-03-05T00:53:28;55.05;;;33.25;;
27925;SDS011;15267;47.838;12.128;2023-03-05T00:55:54;54.92;;;32.90;;
27925;SDS011;15267;47.838;12.128;2023-03-05T00:58:20;59.97;;;34.25;;
27925;SDS011;15267;47.838;12.128;2023-03-05T01:00:46;58.22;;;33.50;;
27925;SDS011;15267;47.838;12.128;2023-03-05T01:03:14;53.28;;;32.03;;
27925;SDS011;15267;47.838;12.128;2023-03-05T01:05:41;57.30;;;34.33;;
27925;SDS011;15267;47.838;12.128;2023-03-05T01:08:07;57.78;;;33.47;;
27925;SDS011;15267;47.838;12.128;2023-03-05T01:10:33;59.47;;;33.88;;
27925;SDS011;15267;47.838;12.128;2023-03-05T01:12:59;54.70;;;32.33;;
27925;SDS011;15267;47.838;12.128;2023-03-05T01:15:25;60.47;;;33.72;;
27925;SDS011;15267;47.838;12.128;2023-03-05T01:17:51;63.88;;;34.38;;
27925;SDS011;15267;47.838;12.128;2023-03-05T01:20:18;56.03;;;32.92;;
27925;SDS011;15267;47.838;12.128;2023-03-05T01:22:44;58.63;;;34.75;;
27925;SDS011;15267;47.838;12.128;2023-03-05T01:25:11;56.35;;;33.13;;
27925;SDS011;15267;47.838;12.128;2023-03-05T01:27:37;64.22;;;35.05;;
27925;SDS011;15267;47.838;12.128;2023-03-05T01:30:03;56.88;;;32.28;;
27925;SDS011;15267;47.838;12.128;2023-03-05T01:32:29;58.40;;;35.60;;
27925;SDS011;15267;47.838;12.128;2023-03-05T01:34:55;63.70;;;35.88;;
27925;SDS011;15267;47.838;12.128;2023-03-05T01:37:21;60.88;;;34.65;;
27925;SDS011;15267;47.838;12.128;2023-03-05T01:39:47;60.28;;;35.25;;
27925;SDS011;15267;47.838;12.128;2023-03-05T01:42:13;62.28;;;34.95;;
27925;SDS011;15267;47.838;12.128;2023-03-05T01:44:57;62.33;;;34.88;;
27925;SDS011;15267;47.838;12.128;2023-03-05T01:47:24;60.85;;;34.13;;
27925;SDS011;15267;47.838;12.128;2023-03-05T01:49:50;64.90;;;35.30;;
27925;SDS011;15267;47.838;12.128;2023-03-05T01:52:16;60.55;;;35.25;;
27925;SDS011;15267;47.838;12.128;2023-03-05T01:54:46;57.55;;;35.08;;
27925;SDS011;15267;47.838;12.128;2023-03-05T01:57:13;66.53;;;36.10;;
27925;SDS011;15267;47.838;12.128;2023-03-05T01:59:40;62.72;;;35.30;;
27925;SDS011;15267;47.838;12.128;2023-03-05T02:02:07;59.78;;;34.28;;
27925;SDS011;15267;47.838;12.128;2023-03-05T02:04:35;60.53;;;35.25;;
27925;SDS011;15267;47.838;12.128;2023-03-05T02:07:02;58.95;;;33.78;;
27925;SDS011;15267;47.838;12.128;2023-03-05T02:09:28;60.05;;;33.28;;
27925;SDS011;15267;47.838;12.128;2023-03-05T02:11:54;53.92;;;33.67;;
27925;SDS011;15267;47.838;12.128;2023-03-05T02:14:21;60.92;;;35.17;;
27925;SDS011;15267;47.838;12.128;2023-03-05T02:16:48;60.42;;;35.58;;
27925;SDS011;15267;47.838;12.128;2023-03-05T02:19:14;61.35;;;36.42;;
27925;SDS011;15267;47.838;12.128;2023-03-05T02:21:41;61.08;;;35.75;;
27925;SDS011;15267;47.838;12.128;2023-03-05T02:24:12;59.80;;;35.80;;
27925;SDS011;15267;47.838;12.128;2023-03-05T02:26:38;60.08;;;35.20;;
27925;SDS011;15267;47.838;12.128;2023-03-05T02:29:04;62.70;;;36.33;;
27925;SDS011;15267;47.838;12.128;2023-03-05T02:31:32;63.97;;;36.33;;
27925;SDS011;15267;47.838;12.128;2023-03-05T02:33:58;63.20;;;35.97;;
27925;SDS011;15267;47.838;12.128;2023-03-05T02:36:24;60.67;;;37.72;;
27925;SDS011;15267;47.838;12.128;2023-03-05T02:38:50;59.45;;;35.63;;
27925;SDS011;15267;47.838;12.128;2023-03-05T02:41:17;62.60;;;36.63;;
27925;SDS011;15267;47.838;12.128;2023-03-05T02:43:44;65.05;;;36.70;;
27925;SDS011;15267;47.838;12.128;2023-03-05T02:46:10;62.95;;;37.13;;
27925;SDS011;15267;47.838;12.128;2023-03-05T02:48:35;67.00;;;41.10;;
27925;SDS011;15267;47.838;12.128;2023-03-05T02:51:02;70.05;;;42.33;;
27925;SDS011;15267;47.838;12.128;2023-03-05T02:53:28;74.65;;;41.20;;
27925;SDS011;15267;47.838;12.128;2023-03-05T02:55:54;76.70;;;45.92;;
27925;SDS011;15267;47.838;12.128;2023-03-05T02:58:20;71.47;;;43.03;;
27925;SDS011;15267;47.838;12.128;2023-03-05T03:00:46;64.72;;;38.28;;
27925;SDS011;15267;47.838;12.128;2023-03-05T03:03:12;63.15;;;37.45;;
27925;SDS011;15267;47.838;12.128;2023-03-05T03:05:38;60.83;;;35.15;;
27925;SDS011;15267;47.838;12.128;2023-03-05T03:08:04;64.30;;;36.60;;
27925;SDS011;15267;47.838;12.128;2023-03-05T03:10:31;61.50;;;36.13;;
27925;SDS011;15267;47.838;12.128;2023-03-05T03:12:57;65.30;;;38.17;;
27925;SDS011;15267;47.838;12.128;2023-03-05T03:15:23;67.05;;;38.08;;
27925;SDS011;15267;47.838;12.128;2023-03-05T03:17:49;58.67;;;35.63;;
27925;SDS011;15267;47.838;12.128;2023-03-05T03:20:16;59.70;;;36.58;;
27925;SDS011;15267;47.838;12.128;2023-03-05T03:22:42;68.10;;;39.83;;
27925;SDS011;15267;47.838;12.128;2023-03-05T03:25:09;68.20;;;38.92;;
27925;SDS011;15267;47.838;12.128;2023-03-05T03:27:36;63.67;;;38.05;;
27925;SDS011;15267;47.838;12.128;2023-03-05T03:30:03;66.07;;;38.00;;
27925;SDS011;15267;47.838;12.128;2023-03-05T03:32:29;64.38;;;38.78;;
27925;SDS011;15267;47.838;12.128;2023-03-05T03:34:56;58.72;;;35.58;;
27925;SDS011;15267;47.838;12.128;2023-03-05T03:37:22;65.60;;;37.70;;
27925;SDS011;15267;47.838;12.128;2023-03-05T03:39:48;60.00;;;37.25;;
27925;SDS011;15267;47.838;12.128;2023-03-05T03:42:18;63.97;;;37.53;;
27925;SDS011;15267;47.838;12.128;2023-03-05T03:44:44;62.72;;;37.00;;
27925;SDS011;15267;47.838;12.128;2023-03-05T03:47:10;62.88;;;35.45;;
27925;SDS011;15267;47.838;12.128;2023-03-05T03:49:36;62.20;;;36.25;;
27925;SDS011;15267;47.838;12.128;2023-03-05T03:52:02;68.07;;;37.08;;
27925;SDS011;15267;47.838;12.128;2023-03-05T03:54:28;61.10;;;34.83;;
27925;SDS011;15267;47.838;12.128;2023-03-05T03:56:54;63.63;;;36.95;;
27925;SDS011;15267;47.838;12.128;2023-03-05T03:59:20;62.65;;;37.28;;
27925;SDS011;15267;47.838;12.128;2023-03-05T04:01:45;60.67;;;35.60;;
27925;SDS011;15267;47.838;12.128;2023-03-05T04:04:11;58.85;;;36.45;;
27925;SDS011;15267;47.838;12.128;2023-03-05T04:06:38;65.43;;;34.80;;
27925;SDS011;15267;47.838;12.128;2023-03-05T04:09:04;64.35;;;37.67;;
27925;SDS011;15267;47.838;12.128;2023-03-05T04:11:32;63.58;;;36.88;;
27925;SDS011;15267;47.838;12.128;2023-03-05T04:13:58;63.55;;;38.30;;
27925;SDS011;15267;47.838;12.128;2023-03-05T04:16:24;66.65;;;37.17;;
27925;SDS011;15267;47.838;12.128;2023-03-05T04:18:50;59.15;;;36.63;;
27925;SDS011;15267;47.838;12.128;2023-03-05T04:21:16;64.85;;;37.90;;
27925;SDS011;15267;47.838;12.128;2023-03-05T04:23:42;66.20;;;37.38;;
27925;SDS011;15267;47.838;12.128;2023-03-05T04:26:07;57.80;;;33.92;;
27925;SDS011;15267;47.838;12.128;2023-03-05T04:28:33;65.88;;;36.92;;
27925;SDS011;15267;47.838;12.128;2023-03-05T04:30:59;66.55;;;38.72;;
27925;SDS011;15267;47.838;12.128;2023-03-05T04:33:25;66.03;;;37.60;;
27925;SDS011;15267;47.838;12.128;2023-03-05T04:35:51;62.80;;;37.58;;
27925;SDS011;15267;47.838;12.128;2023-03-05T04:38:17;71.70;;;37.10;;
27925;SDS011;15267;47.838;12.128;2023-03-05T04:40:44;67.35;;;38.83;;
27925;SDS011;15267;47.838;12.128;2023-03-05T04:43:10;65.25;;;37.17;;
27925;SDS011;15267;47.838;12.128;2023-03-05T04:45:39;65.10;;;38.13;;
27925;SDS011;15267;47.838;12.128;2023-03-05T04:48:06;64.47;;;38.03;;
27925;SDS011;15267;47.838;12.128;2023-03-05T04:50:32;64.60;;;38.15;;
27925;SDS011;15267;47.838;12.128;2023-03-05T04:52:58;63.88;;;36.28;;
27925;SDS011;15267;47.838;12.128;2023-03-05T04:55:24;60.47;;;36.55;;
27925;SDS011;15267;47.838;12.128;2023-03-05T04:57:51;63.72;;;35.85;;
27925;SDS011;15267;47.838;12.128;2023-03-05T05:00:17;61.22;;;36.03;;
27925;SDS011;15267;47.838;12.128;2023-03-05T05:02:44;63.13;;;38.60;;
27925;SDS011;15267;47.838;12.128;2023-03-05T05:05:11;63.90;;;36.47;;
27925;SDS011;15267;47.838;12.128;2023-03-05T05:07:37;63.80;;;36.90;;
27925;SDS011;15267;47.838;12.128;2023-03-05T05:10:04;62.55;;;38.17;;
27925;SDS011;15267;47.838;12.128;2023-03-05T05:12:31;63.55;;;36.95;;
27925;SDS011;15267;47.838;12.128;2023-03-05T05:14:57;64.80;;;37.47;;
27925;SDS011;15267;47.838;12.128;2023-03-05T05:17:24;64.07;;;37.40;;
27925;SDS011;15267;47.838;12.128;2023-03-05T05:19:50;64.40;;;37.70;;
27925;SDS011;15267;47.838;12.128;2023-03-05T05:22:17;65.50;;;38.20;;
27925;SDS011;15267;47.838;12.128;2023-03-05T05:24:43;65.50;;;37.85;;
27925;SDS011;15267;47.838;12.128;2023-03-05T05:27:09;63.13;;;35.97;;
27925;SDS011;15267;47.838;12.128;2023-03-05T05:29:35;64.82;;;37.88;;
27925;SDS011;15267;47.838;12.128;2023-03-05T05:32:01;69.45;;;38.83;;
27925;SDS011;15267;47.838;12.128;2023-03-05T05:34:27;67.78;;;37.65;;
27925;SDS011;15267;47.838;12.128;2023-03-05T05:36:53;70.75;;;39.90;;
27925;SDS011;15267;47.838;12.128;2023-03-05T05:39:19;68.13;;;37.13;;
27925;SDS011;15267;47.838;12.128;2023-03-05T05:41:44;69.03;;;39.10;;
27925;SDS011;15267;47.838;12.128;2023-03-05T05:44:10;69.35;;;40.42;;
27925;SDS011;15267;47.838;12.128;2023-03-05T05:46:36;68.30;;;39.30;;
27925;SDS011;15267;47.838;12.128;2023-03-05T05:49:02;65.50;;;36.85;;
27925;SDS011;15267;47.838;12.128;2023-03-05T05:51:28;68.60;;;37.88;;
27925;SDS011;15267;47.838;12.128;2023-03-05T05:53:54;62.80;;;37.85;;
27925;SDS011;15267;47.838;12.128;2023-03-05T05:56:20;68.30;;;39.10;;
27925;SDS011;15267;47.838;12.128;2023-03-05T05:58:46;73.65;;;38.88;;
27925;SDS011;15267;47.838;12.128;2023-03-05T06:01:13;66.25;;;37.28;;
27925;SDS011;15267;47.838;12.128;2023-03-05T06:03:39;64.93;;;35.85;;
27925;SDS011;15267;47.838;12.128;2023-03-05T06:06:09;66.22;;;36.88;;
27925;SDS011;15267;47.838;12.128;2023-03-05T06:08:35;64.47;;;36.72;;
27925;SDS011;15267;47.838;12.128;2023-03-05T06:11:01;67.82;;;37.10;;
27925;SDS011;15267;47.838;12.128;2023-03-05T06:13:27;64.07;;;37.92;;
27925;SDS011;15267;47.838;12.128;2023-03-05T06:15:56;66.60;;;39.08;;
27925;SDS011;15267;47.838;12.128;2023-03-05T06:18:22;72.85;;;40.47;;
27925;SDS011;15267;47.838;12.128;2023-03-05T06:20:59;73.88;;;39.83;;
27925;SDS011;15267;47.838;12.128;2023-03-05T06:23:26;70.28;;;37.03;;
27925;SDS011;15267;47.838;12.128;2023-03-05T06:25:52;72.32;;;40.78;;
27925;SDS011;15267;47.838;12.128;2023-03-05T06:28:18;78.82;;;43.08;;
27925;SDS011;15267;47.838;12.128;2023-03-05T06:30:44;71.82;;;42.15;;
27925;SDS011;15267;47.838;12.128;2023-03-05T06:33:10;68.10;;;38.67;;
27925;SDS011;15267;47.838;12.128;2023-03-05T06:35:37;65.68;;;39.10;;
27925;SDS011;15267;47.838;12.128;2023-03-05T06:38:06;70.63;;;39.20;;
27925;SDS011;15267;47.838;12.128;2023-03-05T06:40:33;67.45;;;40.20;;
27925;SDS011;15267;47.838;12.128;2023-03-05T06:42:59;71.63;;;38.20;;
27925;SDS011;15267;47.838;12.128;2023-03-05T06:45:25;70.30;;;39.92;;
27925;SDS011;15267;47.838;12.128;2023-03-05T06:47:51;65.10;;;39.28;;
27925;SDS011;15267;47.838;12.128;2023-03-05T06:50:17;64.90;;;38.33;;
27925;SDS011;15267;47.838;12.128;2023-03-05T06:52:43;68.35;;;39.92;;
27925;SDS011;15267;47.838;12.128;2023-03-05T06:55:09;76.13;;;39.75;;
27925;SDS011;15267;47.838;12.128;2023-03-05T06:57:35;71.95;;;40.08;;
27925;SDS011;15267;47.838;12.128;2023-03-05T07:00:05;71.53;;;39.92;;
27925;SDS011;15267;47.838;12.128;2023-03-05T07:02:36;72.80;;;40.92;;
27925;SDS011;15267;47.838;12.128;2023-03-05T07:05:02;66.75;;;38.83;;
27925;SDS011;15267;47.838;12.128;2023-03-05T07:07:28;70.20;;;40.50;;
27925;SDS011;15267;47.838;12.128;2023-03-05T07:09:53;73.88;;;41.40;;
27925;SDS011;15267;47.838;12.128;2023-03-05T07:12:19;70.55;;;40.95;;
27925;SDS011;15267;47.838;12.128;2023-03-05T07:14:45;72.95;;;40.50;;
27925;SDS011;15267;47.838;12.128;2023-03-05T07:17:11;71.63;;;42.17;;
27925;SDS011;15267;47.838;12.128;2023-03-05T07:19:39;69.25;;;39.10;;
27925;SDS011;15267;47.838;12.128;2023-03-05T07:22:06;71.93;;;40.67;;
27925;SDS011;15267;47.838;12.128;2023-03-05T07:24:32;67.47;;;39.60;;
27925;SDS011;15267;47.838;12.128;2023-03-05T07:26:58;68.15;;;38.88;;
27925;SDS011;15267;47.838;12.128;2023-03-05T07:29:27;69.32;;;39.08;;
27925;SDS011;15267;47.838;12.128;2023-03-05T07:31:54;68.07;;;38.67;;
27925;SDS011;15267;47.838;12.128;2023-03-05T07:34:20;68.15;;;39.55;;
27925;SDS011;15267;47.838;12.128;2023-03-05T07:36:50;70.13;;;39.90;;
27925;SDS011;15267;47.838;12.128;2023-03-05T07:39:16;67.32;;;38.22;;
27925;SDS011;15267;47.838;12.128;2023-03-05T07:41:43;66.68;;;37.85;;
27925;SDS011;15267;47.838;12.128;2023-03-05T07:44:09;63.80;;;35.03;;
27925;SDS011;15267;47.838;12.128;2023-03-05T07:46:35;67.97;;;37.90;;
27925;SDS011;15267;47.838;12.128;2023-03-05T07:49:01;66.85;;;38.53;;
27925;SDS011;15267;47.838;12.128;2023-03-05T07:51:27;62.13;;;37.10;;
27925;SDS011;15267;47.838;12.128;2023-03-05T07:53:54;62.40;;;38.05;;
27925;SDS011;15267;47.838;12.128;2023-03-05T07:56:22;70.50;;;38.97;;
27925;SDS011;15267;47.838;12.128;2023-03-05T07:58:48;69.20;;;39.35;;
27925;SDS011;15267;47.838;12.128;2023-03-05T08:01:14;65.80;;;37.60;;
27925;SDS011;15267;47.838;12.128;2023-03-05T08:03:40;69.63;;;39.40;;
27925;SDS011;15267;47.838;12.128;2023-03-05T08:06:06;65.72;;;37.60;;
27925;SDS011;15267;47.838;12.128;2023-03-05T08:08:32;66.13;;;38.70;;
27925;SDS011;15267;47.838;12.128;2023-03-05T08:11:06;69.38;;;39.50;;
27925;SDS011;15267;47.838;12.128;2023-03-05T08:13:32;70.50;;;39.53;;
27925;SDS011;15267;47.838;12.128;2023-03-05T08:15:58;70.80;;;37.85;;
27925;SDS011;15267;47.838;12.128;2023-03-05T08:18:28;70.13;;;39.75;;
27925;SDS011;15267;47.838;12.128;2023-03-05T08:20:54;68.00;;;38.85;;
27925;SDS011;15267;47.838;12.128;2023-03-05T08:23:20;69.35;;;40.33;;
27925;SDS011;15267;47.838;12.128;2023-03-05T08:25:46;67.32;;;38.65;;
27925;SDS011;15267;47.838;12.128;2023-03-05T08:28:12;68.13;;;40.22;;
27925;SDS011;15267;47.838;12.128;2023-03-05T08:30:38;67.53;;;38.28;;
27925;SDS011;15267;47.838;12.128;2023-03-05T08:33:04;69.15;;;40.53;;
27925;SDS011;15267;47.838;12.128;2023-03-05T08:35:30;67.80;;;38.45;;
27925;SDS011;15267;47.838;12.128;2023-03-05T08:37:56;65.30;;;37.25;;
27925;SDS011;15267;47.838;12.128;2023-03-05T08:40:22;64.60;;;38.40;;
27925;SDS011;15267;47.838;12.128;2023-03-05T08:42:48;64.00;;;37.35;;
27925;SDS011;15267;47.838;12.128;2023-03-05T08:45:15;66.78;;;37.33;;
27925;SDS011;15267;47.838;12.128;2023-03-05T08:47:41;63.22;;;37.60;;
27925;SDS011;15267;47.838;12.128;2023-03-05T08:50:07;60.28;;;35.95;;
27925;SDS011;15267;47.838;12.128;2023-03-05T08:52:34;60.38;;;36.47;;
27925;SDS011;15267;47.838;12.128;2023-03-05T08:55:00;62.42;;;36.42;;
27925;SDS011;15267;47.838;12.128;2023-03-05T08:57:26;59.42;;;35.72;;
27925;SDS011;15267;47.838;12.128;2023-03-05T08:59:51;58.83;;;33.25;;
27925;SDS011;15267;47.838;12.128;2023-03-05T09:02:17;55.10;;;31.80;;
27925;SDS011;15267;47.838;12.128;2023-03-05T09:04:43;59.75;;;33.53;;
27925;SDS011;15267;47.838;12.128;2023-03-05T09:07:09;54.00;;;32.17;;
27925;SDS011;15267;47.838;12.128;2023-03-05T09:09:36;55.30;;;32.05;;
27925;SDS011;15267;47.838;12.128;2023-03-05T09:12:02;53.50;;;31.25;;
27925;SDS011;15267;47.838;12.128;2023-03-05T09:14:28;50.42;;;27.63;;
27925;SDS011;15267;47.838;12.128;2023-03-05T09:16:55;52.08;;;29.52;;
27925;SDS011;15267;47.838;12.128;2023-03-05T09:19:21;49.97;;;29.70;;
27925;SDS011;15267;47.838;12.128;2023-03-05T09:21:47;48.10;;;29.30;;
27925;SDS011;15267;47.838;12.128;2023-03-05T09:24:13;51.88;;;30.42;;
27925;SDS011;15267;47.838;12.128;2023-03-05T09:26:39;47.40;;;28.45;;
27925;SDS011;15267;47.838;12.128;2023-03-05T09:29:06;48.17;;;27.90;;
27925;SDS011;15267;47.838;12.128;2023-03-05T09:31:33;28.75;;;15.90;;
27925;SDS011;15267;47.838;12.128;2023-03-05T09:33:58;42.15;;;24.50;;
27925;SDS011;15267;47.838;12.128;2023-03-05T09:36:25;41.78;;;25.02;;
27925;SDS011;15267;47.838;12.128;2023-03-05T09:38:52;47.65;;;29.15;;
27925;SDS011;15267;47.838;12.128;2023-03-05T09:43:55;51.08;;;27.40;;
27925;SDS011;15267;47.838;12.128;2023-03-05T09:51:30;41.65;;;25.90;;
27925;SDS011;15267;47.838;12.128;2023-03-05T09:54:00;46.17;;;26.95;;
27925;SDS011;15267;47.838;12.128;2023-03-05T09:56:38;46.25;;;27.02;;
27925;SDS011;15267;47.838;12.128;2023-03-05T09:59:13;42.80;;;26.30;;
27925;SDS011;15267;47.838;12.128;2023-03-05T10:01:43;47.28;;;27.10;;
27925;SDS011;15267;47.838;12.128;2023-03-05T10:06:55;43.78;;;26.25;;
27925;SDS011;15267;47.838;12.128;2023-03-05T10:09:29;46.08;;;26.73;;
27925;SDS011;15267;47.838;12.128;2023-03-05T10:11:58;44.45;;;26.02;;
27925;SDS011;15267;47.838;12.128;2023-03-05T10:14:35;44.45;;;25.95;;
27925;SDS011;15267;47.838;12.128;2023-03-05T10:27:51;40.95;;;24.02;;
27925;SDS011;15267;47.838;12.128;2023-03-05T10:33:10;39.72;;;25.05;;
27925;SDS011;15267;47.838;12.128;2023-03-05T10:40:50;34.22;;;20.63;;
27925;SDS011;15267;47.838;12.128;2023-03-05T10:45:43;34.97;;;21.25;;
27925;SDS011;15267;47.838;12.128;2023-03-05T10:51:38;34.30;;;22.23;;
27925;SDS011;15267;47.838;12.128;2023-03-05T10:53:57;34.10;;;21.35;;
27925;SDS011;15267;47.838;12.128;2023-03-05T10:56:24;36.97;;;23.27;;
27925;SDS011;15267;47.838;12.128;2023-03-05T10:58:51;34.17;;;20.55;;
27925;SDS011;15267;47.838;12.128;2023-03-05T11:09:12;33.25;;;20.52;;
27925;SDS011;15267;47.838;12.128;2023-03-05T11:11:39;31.70;;;19.58;;
27925;SDS011;15267;47.838;12.128;2023-03-05T11:14:08;32.65;;;20.23;;
27925;SDS011;15267;47.838;12.128;2023-03-05T11:16:47;31.95;;;19.48;;
27925;SDS011;15267;47.838;12.128;2023-03-05T11:19:31;32.95;;;19.55;;
27925;SDS011;15267;47.838;12.128;2023-03-05T11:24:43;32.67;;;18.52;;
27925;SDS011;15267;47.838;12.128;2023-03-05T11:27:31;29.05;;;17.88;;
27925;SDS011;15267;47.838;12.128;2023-03-05T11:29:59;26.80;;;17.23;;
27925;SDS011;15267;47.838;12.128;2023-03-05T11:32:26;24.48;;;16.35;;
27925;SDS011;15267;47.838;12.128;2023-03-05T11:34:52;25.88;;;15.80;;
27925;SDS011;15267;47.838;12.128;2023-03-05T11:37:26;24.17;;;15.82;;
27925;SDS011;15267;47.838;12.128;2023-03-05T11:42:18;27.52;;;16.30;;
27925;SDS011;15267;47.838;12.128;2023-03-05T11:44:49;26.20;;;16.60;;
27925;SDS011;15267;47.838;12.128;2023-03-05T11:47:36;24.95;;;14.85;;
27925;SDS011;15267;47.838;12.128;2023-03-05T11:52:50;24.30;;;15.15;;
27925;SDS011;15267;47.838;12.128;2023-03-05T11:57:51;24.63;;;14.85;;
27925;SDS011;15267;47.838;12.128;2023-03-05T12:00:20;22.40;;;14.93;;
27925;SDS011;15267;47.838;12.128;2023-03-05T12:02:48;21.92;;;14.43;;
27925;SDS011;15267;47.838;12.128;2023-03-05T12:05:16;21.65;;;14.23;;
27925;SDS011;15267;47.838;12.128;2023-03-05T12:07:44;22.58;;;14.82;;
27925;SDS011;15267;47.838;12.128;2023-03-05T12:10:15;23.10;;;14.20;;
27925;SDS011;15267;47.838;12.128;2023-03-05T12:12:56;24.02;;;15.30;;
27925;SDS011;15267;47.838;12.128;2023-03-05T12:17:59;23.75;;;14.63;;
27925;SDS011;15267;47.838;12.128;2023-03-05T12:23:03;26.02;;;15.25;;
27925;SDS011;15267;47.838;12.128;2023-03-05T12:25:33;25.65;;;17.15;;
27925;SDS011;15267;47.838;12.128;2023-03-05T12:27:59;25.40;;;16.58;;
27925;SDS011;15267;47.838;12.128;2023-03-05T12:32:54;34.35;;;19.58;;
27925;SDS011;15267;47.838;12.128;2023-03-05T12:40:34;24.40;;;16.20;;
27925;SDS011;15267;47.838;12.128;2023-03-05T12:43:42;24.30;;;15.82;;
27925;SDS011;15267;47.838;12.128;2023-03-05T12:45:49;22.90;;;14.73;;
27925;SDS011;15267;47.838;12.128;2023-03-05T12:53:09;25.85;;;14.85;;
27925;SDS011;15267;47.838;12.128;2023-03-05T13:00:51;22.33;;;14.98;;
27925;SDS011;15267;47.838;12.128;2023-03-05T13:03:22;22.98;;;14.45;;
27925;SDS011;15267;47.838;12.128;2023-03-05T13:05:50;23.75;;;15.15;;
27925;SDS011;15267;47.838;12.128;2023-03-05T13:08:20;23.40;;;14.98;;
27925;SDS011;15267;47.838;12.128;2023-03-05T13:11:00;20.85;;;13.77;;
27925;SDS011;15267;47.838;12.128;2023-03-05T13:13:32;22.73;;;15.02;;
27925;SDS011;15267;47.838;12.128;2023-03-05T13:15:59;24.63;;;15.10;;
27925;SDS011;15267;47.838;12.128;2023-03-05T13:18:26;23.95;;;15.00;;
27925;SDS011;15267;47.838;12.128;2023-03-05T13:21:06;25.33;;;15.73;;
27925;SDS011;15267;47.838;12.128;2023-03-05T13:23:33;24.10;;;14.73;;
27925;SDS011;15267;47.838;12.128;2023-03-05T13:26:10;28.02;;;16.65;;
27925;SDS011;15267;47.838;12.128;2023-03-05T13:28:37;25.40;;;15.70;;
27925;SDS011;15267;47.838;12.128;2023-03-05T13:31:11;24.38;;;15.82;;
27925;SDS011;15267;47.838;12.128;2023-03-05T13:33:37;26.17;;;15.75;;
27925;SDS011;15267;47.838;12.128;2023-03-05T13:36:04;23.05;;;15.75;;
27925;SDS011;15267;47.838;12.128;2023-03-05T13:38:42;24.50;;;15.52;;
27925;SDS011;15267;47.838;12.128;2023-03-05T13:43:45;26.10;;;16.63;;
27925;SDS011;15267;47.838;12.128;2023-03-05T13:46:11;24.20;;;16.98;;
27925;SDS011;15267;47.838;12.128;2023-03-05T13:48:37;27.85;;;16.52;;
27925;SDS011;15267;47.838;12.128;2023-03-05T13:51:03;26.50;;;16.67;;
27925;SDS011;15267;47.838;12.128;2023-03-05T13:53:31;25.90;;;17.50;;
27925;SDS011;15267;47.838;12.128;2023-03-05T13:56:01;25.30;;;16.08;;
27925;SDS011;15267;47.838;12.128;2023-03-05T14:01:14;24.45;;;15.73;;
27925;SDS011;15267;47.838;12.128;2023-03-05T14:03:42;25.83;;;15.57;;
27925;SDS011;15267;47.838;12.128;2023-03-05T14:06:10;26.02;;;15.93;;
27925;SDS011;15267;47.838;12.128;2023-03-05T14:08:36;24.08;;;14.60;;
27925;SDS011;15267;47.838;12.128;2023-03-05T14:11:15;25.27;;;15.75;;
27925;SDS011;15267;47.838;12.128;2023-03-05T14:13:42;25.08;;;16.67;;
27925;SDS011;15267;47.838;12.128;2023-03-05T14:18:34;23.85;;;14.07;;
27925;SDS011;15267;47.838;12.128;2023-03-05T14:21:07;21.55;;;14.30;;
27925;SDS011;15267;47.838;12.128;2023-03-05T14:28:51;20.67;;;14.35;;
27925;SDS011;15267;47.838;12.128;2023-03-05T14:31:17;21.63;;;13.73;;
27925;SDS011;15267;47.838;12.128;2023-03-05T14:33:43;22.05;;;13.88;;
27925;SDS011;15267;47.838;12.128;2023-03-05T14:36:10;21.45;;;13.98;;
27925;SDS011;15267;47.838;12.128;2023-03-05T14:38:38;21.00;;;13.98;;
27925;SDS011;15267;47.838;12.128;2023-03-05T14:43:49;27.13;;;15.18;;
27925;SDS011;15267;47.838;12.128;2023-03-05T14:46:14;27.65;;;16.20;;
27925;SDS011;15267;47.838;12.128;2023-03-05T14:48:41;25.92;;;15.95;;
27925;SDS011;15267;47.838;12.128;2023-03-05T14:51:07;29.33;;;16.27;;
27925;SDS011;15267;47.838;12.128;2023-03-05T14:53:39;28.27;;;16.27;;
27925;SDS011;15267;47.838;12.128;2023-03-05T14:56:17;26.40;;;15.52;;
27925;SDS011;15267;47.838;12.128;2023-03-05T14:58:46;25.77;;;16.60;;
27925;SDS011;15267;47.838;12.128;2023-03-05T15:01:12;27.48;;;17.02;;
27925;SDS011;15267;47.838;12.128;2023-03-05T15:03:38;26.38;;;16.25;;
27925;SDS011;15267;47.838;12.128;2023-03-05T15:06:06;25.67;;;16.08;;
27925;SDS011;15267;47.838;12.128;2023-03-05T15:08:32;26.17;;;16.25;;
27925;SDS011;15267;47.838;12.128;2023-03-05T15:10:58;25.15;;;16.42;;
27925;SDS011;15267;47.838;12.128;2023-03-05T15:13:25;26.08;;;15.57;;
27925;SDS011;15267;47.838;12.128;2023-03-05T15:15:51;28.65;;;16.02;;
27925;SDS011;15267;47.838;12.128;2023-03-05T15:18:19;27.23;;;16.85;;
27925;SDS011;15267;47.838;12.128;2023-03-05T15:20:45;25.67;;;16.33;;
27925;SDS011;15267;47.838;12.128;2023-03-05T15:23:12;23.67;;;15.38;;
27925;SDS011;15267;47.838;12.128;2023-03-05T15:25:39;23.17;;;15.23;;
27925;SDS011;15267;47.838;12.128;2023-03-05T15:28:05;26.60;;;14.80;;
27925;SDS011;15267;47.838;12.128;2023-03-05T15:30:32;23.50;;;15.20;;
27925;SDS011;15267;47.838;12.128;2023-03-05T15:33:05;23.30;;;15.10;;
27925;SDS011;15267;47.838;12.128;2023-03-05T15:35:31;25.10;;;15.40;;
27925;SDS011;15267;47.838;12.128;2023-03-05T15:37:57;22.30;;;14.52;;
27925;SDS011;15267;47.838;12.128;2023-03-05T15:40:23;24.25;;;14.25;;
27925;SDS011;15267;47.838;12.128;2023-03-05T15:42:51;23.85;;;15.15;;